Time,TemperatureF,DewpointF,PressureIn,WindDirection,WindDirectionDegrees,WindSpeedMPH,WindSpeedGustMPH,Humidity,HourlyPrecipIn,Conditions,Clouds,dailyrainin,SoftwareType,DateUTC
2013-10-18 00:00:00,66.0,60.0,-100.00,WSW,237,2.0,13.0,80,0.00,,,-99.99,,2013-10-18 04:00:00,
2013-10-18 00:44:00,66.0,60.0,-100.00,WSW,237,2.0,13.0,80,0.00,,,-99.99,,2013-10-18 04:44:00,
2013-10-18 00:54:00,66.0,60.0,-100.00,WSW,237,2.0,13.0,80,0.00,,,-99.99,,2013-10-18 04:54:00,
2013-10-18 01:00:00,66.0,61.0,-100.00,WSW,239,7.0,15.0,85,0.01,,,-99.99,,2013-10-18 05:00:00,
2013-10-18 01:43:00,66.0,61.0,-100.00,WSW,239,7.0,15.0,85,0.01,,,-99.99,,2013-10-18 05:43:00,
2013-10-18 01:52:00,66.0,61.0,-100.00,WSW,239,7.0,15.0,85,0.01,,,-99.99,,2013-10-18 05:52:00,
2013-10-18 02:00:00,66.0,60.0,-100.00,WNW,287,5.0,19.0,83,0.00,,,-99.99,,2013-10-18 06:00:00,
2013-10-18 02:42:00,66.0,60.0,-100.00,WNW,287,5.0,19.0,83,0.00,,,-99.99,,2013-10-18 06:42:00,
2013-10-18 02:52:00,66.0,60.0,-100.00,WNW,287,5.0,19.0,83,0.00,,,-99.99,,2013-10-18 06:52:00,
2013-10-18 03:00:00,64.0,53.0,-100.00,WNW,302,11.0,19.0,68,0.00,,,-99.99,,2013-10-18 07:00:00,
2013-10-18 03:42:00,64.0,53.0,-100.00,WNW,302,11.0,19.0,68,0.00,,,-99.99,,2013-10-18 07:42:00,
2013-10-18 03:52:00,64.0,53.0,-100.00,WNW,302,11.0,19.0,68,0.00,,,-99.99,,2013-10-18 07:52:00,
2013-10-18 05:00:00,60.0,48.0,-100.00,West,274,6.0,22.0,66,0.00,,,-99.99,,2013-10-18 09:00:00,
2013-10-18 05:43:00,60.0,48.0,-100.00,West,274,6.0,22.0,66,0.00,,,-99.99,,2013-10-18 09:43:00,
2013-10-18 05:53:00,60.0,48.0,-100.00,West,274,6.0,22.0,66,0.00,,,-99.99,,2013-10-18 09:53:00,
2013-10-18 06:00:00,58.0,46.0,-100.00,NW,310,7.0,19.0,64,0.00,,,-99.99,,2013-10-18 10:00:00,
2013-10-18 06:43:00,58.0,46.0,-100.00,NW,310,7.0,19.0,64,0.00,,,-99.99,,2013-10-18 10:43:00,
2013-10-18 06:53:00,58.0,46.0,-100.00,NW,310,7.0,19.0,64,0.00,,,-99.99,,2013-10-18 10:53:00,
2013-10-18 07:00:00,56.0,43.0,-100.00,NW,315,8.0,20.0,62,0.00,,,-99.99,,2013-10-18 11:00:00,
2013-10-18 07:42:00,56.0,43.0,-100.00,NW,315,8.0,20.0,62,0.00,,,-99.99,,2013-10-18 11:42:00,
2013-10-18 07:52:00,56.0,43.0,-100.00,NW,315,8.0,20.0,62,0.00,,,-99.99,,2013-10-18 11:52:00,
2013-10-18 08:00:00,56.0,44.0,-100.00,WNW,284,11.0,16.0,63,0.00,,,-99.99,,2013-10-18 12:00:00,
2013-10-18 08:42:00,56.0,44.0,-100.00,WNW,284,11.0,16.0,63,0.00,,,-99.99,,2013-10-18 12:42:00,
2013-10-18 08:52:00,56.0,44.0,-100.00,WNW,284,11.0,16.0,63,0.00,,,-99.99,,2013-10-18 12:52:00,
2013-10-18 09:00:00,58.0,45.0,-100.00,WNW,290,5.0,16.0,63,0.00,,,-99.99,,2013-10-18 13:00:00,
2013-10-18 09:42:00,58.0,45.0,-100.00,WNW,290,5.0,16.0,63,0.00,,,-99.99,,2013-10-18 13:42:00,
2013-10-18 09:52:00,58.0,45.0,-100.00,WNW,290,5.0,16.0,63,0.00,,,-99.99,,2013-10-18 13:52:00,
2013-10-18 10:00:00,59.0,44.0,-100.00,NNW,330,12.0,24.0,56,0.00,,,-99.99,,2013-10-18 14:00:00,
2013-10-18 10:42:00,59.0,44.0,-100.00,NNW,330,12.0,24.0,56,0.00,,,-99.99,,2013-10-18 14:42:00,
2013-10-18 10:52:00,59.0,44.0,-100.00,NNW,330,12.0,24.0,56,0.00,,,-99.99,,2013-10-18 14:52:00,
2013-10-18 11:00:00,61.0,43.0,-100.00,NW,312,14.0,19.0,51,0.00,,,-99.99,,2013-10-18 15:00:00,
2013-10-18 11:43:00,61.0,43.0,-100.00,NW,312,14.0,19.0,51,0.00,,,-99.99,,2013-10-18 15:43:00,
2013-10-18 11:54:00,61.0,43.0,-100.00,NW,312,14.0,19.0,51,0.00,,,-99.99,,2013-10-18 15:54:00,
2013-10-18 12:00:00,63.0,44.0,-100.00,NW,312,5.0,21.0,50,0.00,,,-99.99,,2013-10-18 16:00:00,
2013-10-18 12:42:00,63.0,44.0,-100.00,NW,312,5.0,21.0,50,0.00,,,-99.99,,2013-10-18 16:42:00,
2013-10-18 12:53:00,63.0,44.0,-100.00,NW,312,5.0,21.0,50,0.00,,,-99.99,,2013-10-18 16:53:00,
2013-10-18 13:00:00,65.0,44.0,-100.00,West,263,5.0,19.0,46,0.00,,,-99.99,,2013-10-18 17:00:00,
2013-10-18 13:42:00,65.0,44.0,-100.00,West,263,5.0,19.0,46,0.00,,,-99.99,,2013-10-18 17:42:00,
2013-10-18 13:52:00,65.0,44.0,-100.00,West,263,5.0,19.0,46,0.00,,,-99.99,,2013-10-18 17:52:00,
2013-10-18 14:00:00,66.0,43.0,-100.00,West,273,10.0,19.0,42,0.00,,,-99.99,,2013-10-18 18:00:00,
2013-10-18 14:42:00,66.0,43.0,-100.00,West,273,10.0,19.0,42,0.00,,,-99.99,,2013-10-18 18:42:00,
2013-10-18 14:52:00,66.0,43.0,-100.00,West,273,10.0,19.0,42,0.00,,,-99.99,,2013-10-18 18:52:00,
2013-10-18 15:00:00,67.0,42.0,-100.00,NW,309,13.0,19.0,41,0.00,,,-99.99,,2013-10-18 19:00:00,
2013-10-18 15:42:00,67.0,42.0,-100.00,NW,309,13.0,19.0,41,0.00,,,-99.99,,2013-10-18 19:42:00,
2013-10-18 15:52:00,67.0,42.0,-100.00,NW,309,13.0,19.0,41,0.00,,,-99.99,,2013-10-18 19:52:00,
2013-10-18 16:00:00,67.0,41.0,-100.00,NNW,333,9.0,20.0,39,0.00,,,-99.99,,2013-10-18 20:00:00,
2013-10-18 16:42:00,67.0,41.0,-100.00,NNW,333,9.0,20.0,39,0.00,,,-99.99,,2013-10-18 20:42:00,
2013-10-18 16:52:00,67.0,41.0,-100.00,NNW,333,9.0,20.0,39,0.00,,,-99.99,,2013-10-18 20:52:00,
2013-10-18 17:00:00,66.0,41.0,-100.00,West,281,5.0,17.0,41,0.00,,,-99.99,,2013-10-18 21:00:00,
2013-10-18 17:45:00,66.0,41.0,-100.00,West,281,5.0,17.0,41,0.00,,,-99.99,,2013-10-18 21:45:00,
2013-10-18 17:54:00,66.0,41.0,-100.00,West,281,5.0,17.0,41,0.00,,,-99.99,,2013-10-18 21:54:00,
2013-10-18 18:00:00,63.0,41.0,-100.00,NW,307,4.0,15.0,45,0.00,,,-99.99,,2013-10-18 22:00:00,
2013-10-18 18:43:00,63.0,41.0,-100.00,NW,307,4.0,15.0,45,0.00,,,-99.99,,2013-10-18 22:43:00,
2013-10-18 18:54:00,63.0,41.0,-100.00,NW,307,4.0,15.0,45,0.00,,,-99.99,,2013-10-18 22:54:00,
2013-10-18 19:00:00,60.0,41.0,-100.00,West,278,3.0,10.0,49,0.00,,,-99.99,,2013-10-18 23:00:00,
2013-10-18 19:43:00,60.0,41.0,-100.00,West,278,3.0,10.0,49,0.00,,,-99.99,,2013-10-18 23:43:00,
2013-10-18 19:53:00,60.0,41.0,-100.00,West,278,3.0,10.0,49,0.00,,,-99.99,,2013-10-18 23:53:00,
2013-10-18 20:00:00,58.0,42.0,-100.00,NW,306,4.0,7.0,54,0.00,,,-99.99,,2013-10-19 00:00:00,
2013-10-18 20:42:00,58.0,42.0,-100.00,NW,306,4.0,7.0,54,0.00,,,-99.99,,2013-10-19 00:42:00,
2013-10-18 20:52:00,58.0,42.0,-100.00,NW,306,4.0,7.0,54,0.00,,,-99.99,,2013-10-19 00:52:00,
2013-10-18 21:00:00,57.0,41.0,-100.00,WNW,282,4.0,10.0,55,0.00,,,-99.99,,2013-10-19 01:00:00,
2013-10-18 21:42:00,57.0,41.0,-100.00,WNW,282,4.0,10.0,55,0.00,,,-99.99,,2013-10-19 01:42:00,
2013-10-18 21:53:00,57.0,41.0,-100.00,WNW,282,4.0,10.0,55,0.00,,,-99.99,,2013-10-19 01:53:00,
2013-10-18 22:00:00,55.0,41.0,-100.00,WNW,284,2.0,9.0,58,0.00,,,-99.99,,2013-10-19 02:00:00,
2013-10-18 22:42:00,55.0,41.0,-100.00,WNW,284,2.0,9.0,58,0.00,,,-99.99,,2013-10-19 02:42:00,
2013-10-18 22:52:00,55.0,41.0,-100.00,WNW,284,2.0,9.0,58,0.00,,,-99.99,,2013-10-19 02:52:00,
2013-10-18 23:00:00,53.0,41.0,-100.00,NW,326,2.0,-999.0,64,-99.99,,,-99.99,,2013-10-19 03:00:00,
2013-10-18 23:45:00,53.0,41.0,-100.00,NW,326,2.0,-999.0,64,-99.99,,,-99.99,,2013-10-19 03:45:00,
2013-10-18 23:55:00,53.0,41.0,-100.00,NW,326,2.0,-999.0,64,-99.99,,,-99.99,,2013-10-19 03:55:00,